Time;durP1;ratioP1;P1;durP2;ratioP2;P2;SDS_P1;SDS_P2;PMS_P1;PMS_P2;Temp;Humidity;BMP_temperature;BMP_pressure;BME280_temperature;BME280_humidity;BME280_pressure;Samples;Min_cycle;Max_cycle;Signal;HPM_P1;HPM_P2
2023/09/26 00:00:21;;;;;;;11.80;10.60;;;;;;;11.22;100.00;102193.91;4952977;28;20031;-78
2023/09/26 00:02:48;;;;;;;13.88;11.15;;;;;;;11.24;100.00;102189.50;4953519;28;20035;-78
2023/09/26 00:05:14;;;;;;;11.30;9.98;;;;;;;10.93;100.00;102138.28;4958955;28;20032;-80
2023/09/26 00:07:40;;;;;;;11.43;10.23;;;;;;;11.24;100.00;102184.31;4960024;28;20520;-77
2023/09/26 00:10:07;;;;;;;11.75;10.48;;;;;;;11.24;100.00;102176.56;4953971;28;20072;-78
2023/09/26 00:12:33;;;;;;;13.00;10.23;;;;;;;11.17;100.00;102163.06;4955939;28;20027;-77
2023/09/26 00:14:58;;;;;;;11.32;10.10;;;;;;;11.17;100.00;102174.22;4953759;28;20038;-80
2023/09/26 00:17:24;;;;;;;13.40;11.07;;;;;;;11.22;100.00;102184.38;4953411;28;20019;-77
2023/09/26 00:19:49;;;;;;;11.88;10.27;;;;;;;11.22;100.00;102191.31;4952998;29;20027;-78
2023/09/26 00:22:14;;;;;;;15.82;10.80;;;;;;;11.07;100.00;102165.19;4952599;28;20031;-77
2023/09/26 00:24:39;;;;;;;13.75;10.60;;;;;;;11.04;100.00;102157.59;4935526;29;20031;-78
2023/09/26 00:27:05;;;;;;;13.95;10.93;;;;;;;11.17;100.00;102186.31;4935770;29;20499;-78
2023/09/26 00:29:31;;;;;;;12.35;11.05;;;;;;;11.15;100.00;102180.38;4952443;29;20027;-78
2023/09/26 00:31:59;;;;;;;13.55;11.32;;;;;;;11.13;100.00;102183.03;4952854;28;20507;-78
2023/09/26 00:34:24;;;;;;;13.07;11.75;;;;;;;11.09;100.00;102184.06;4952918;28;20035;-78
2023/09/26 00:36:50;;;;;;;14.85;12.13;;;;;;;11.06;100.00;102181.63;4952495;28;20546;-77
2023/09/26 00:39:15;;;;;;;15.68;12.60;;;;;;;11.05;100.00;102186.88;4952551;29;20081;-77
2023/09/26 00:41:40;;;;;;;13.15;11.85;;;;;;;10.85;100.00;102159.28;4952699;28;20023;-76
2023/09/26 00:44:07;;;;;;;14.32;12.82;;;;;;;10.94;100.00;102181.31;4952719;29;20485;-78
2023/09/26 00:46:32;;;;;;;15.82;12.57;;;;;;;10.82;100.00;102162.84;4952757;28;20034;-77
2023/09/26 00:48:58;;;;;;;14.55;13.00;;;;;;;10.98;100.00;102191.44;4952847;28;20024;-78
2023/09/26 00:51:24;;;;;;;14.88;13.05;;;;;;;10.95;100.00;102186.41;4952553;29;20019;-78
2023/09/26 00:53:49;;;;;;;14.23;12.75;;;;;;;10.80;100.00;102172.38;4952450;28;20050;-77
2023/09/26 00:56:15;;;;;;;14.10;12.70;;;;;;;10.92;100.00;102183.97;4952144;29;20035;-77
2023/09/26 00:58:40;;;;;;;14.35;12.85;;;;;;;10.87;100.00;102179.00;4952145;29;20059;-77
2023/09/26 01:01:07;;;;;;;13.55;12.18;;;;;;;10.55;100.00;102123.50;4936362;28;20043;-78
2023/09/26 01:03:36;;;;;;;15.38;13.48;;;;;;;10.74;100.00;102144.25;4952423;28;20042;-78
2023/09/26 01:06:05;;;;;;;16.98;13.65;;;;;;;10.87;100.00;102175.56;4952429;28;20032;-78
2023/09/26 01:08:30;;;;;;;14.90;13.40;;;;;;;10.63;100.00;102136.94;4952127;28;20044;-79
2023/09/26 01:10:58;;;;;;;14.13;12.63;;;;;;;10.83;100.00;102167.13;4951962;28;20519;-78
2023/09/26 01:13:24;;;;;;;14.68;12.52;;;;;;;10.82;100.00;102157.69;4952149;28;20560;-77
2023/09/26 01:15:49;;;;;;;15.32;12.77;;;;;;;10.71;100.00;102140.94;4952211;29;20127;-78
2023/09/26 01:18:16;;;;;;;14.48;12.98;;;;;;;10.83;100.00;102163.69;4952314;28;20050;-77
2023/09/26 01:23:24;;;;;;;15.48;13.73;;;;;;;9.94;100.00;102032.25;5238468;22;20067;-77
2023/09/26 01:25:49;;;;;;;15.07;13.52;;;;;;;10.10;100.00;102066.00;4934607;29;20051;-77
2023/09/26 01:28:27;;;;;;;15.95;14.23;;;;;;;10.24;100.00;102080.06;4951755;28;20066;-77
2023/09/26 01:31:02;;;;;;;16.75;14.85;;;;;;;10.51;100.00;102121.09;4951839;29;20550;-77
2023/09/26 01:33:42;;;;;;;17.13;15.10;;;;;;;10.24;100.00;102068.91;4950949;28;20077;-79
2023/09/26 01:42:18;;;;;;;18.15;15.73;;;;;;;9.97;100.00;102004.59;4951708;28;20034;-80
2023/09/26 01:45:42;;;;;;;16.17;14.57;;;;;;;10.99;100.00;102175.03;4951678;29;20028;-78
2023/09/26 01:55:00;;;;;;;17.50;15.77;;;;;;;9.92;100.00;102001.34;4950682;28;20393;-79
2023/09/26 01:58:09;;;;;;;17.75;15.73;;;;;;;10.93;100.00;102166.72;4951710;28;20041;-78
2023/09/26 02:00:43;;;;;;;17.15;15.35;;;;;;;9.91;100.00;102007.41;4951635;29;20058;-78
2023/09/26 02:03:37;;;;;;;16.77;14.48;;;;;;;10.85;100.00;102162.72;4934441;29;20058;-79
2023/09/26 02:06:42;;;;;;;16.48;14.77;;;;;;;10.84;100.00;102162.78;4951461;28;20027;-77
2023/09/26 02:09:24;;;;;;;16.17;14.38;;;;;;;10.34;100.00;102094.28;4951541;29;20039;-77
2023/09/26 02:12:03;;;;;;;;;;;;;;;10.82;100.00;102162.84;4917731;29;20047;-78
2023/09/26 02:14:48;;;;;;;15.68;13.65;;;;;;;10.78;100.00;102160.44;4910605;28;19930;-78
2023/09/26 02:17:57;;;;;;;15.75;14.15;;;;;;;10.75;100.00;102156.25;4911419;29;20071;-77
2023/09/26 02:20:22;;;;;;;15.90;14.18;;;;;;;9.70;100.00;101987.66;4911225;29;20071;-79
2023/09/26 02:26:46;;;;;;;17.35;15.63;;;;;;;10.73;100.00;102147.75;4911450;29;20047;-78
2023/09/26 02:32:58;;;;;;;18.03;15.80;;;;;;;10.73;100.00;102152.91;4911351;29;20159;-77
2023/09/26 02:35:24;;;;;;;16.97;15.20;;;;;;;10.28;100.00;102081.59;4910882;29;20060;-82
2023/09/26 02:37:49;;;;;;;18.23;15.52;;;;;;;10.32;100.00;102085.75;4910679;28;20102;-76
2023/09/26 02:40:44;;;;;;;16.75;15.05;;;;;;;10.69;100.00;102148.75;4911041;29;20040;-77
2023/09/26 02:44:00;;;;;;;17.15;15.10;;;;;;;9.66;100.00;101986.94;4910993;28;20044;-76
2023/09/26 02:49:57;;;;;;;18.65;16.48;;;;;;;9.61;100.00;101960.50;4895576;29;20480;-77
2023/09/26 02:55:44;;;;;;;15.88;14.18;;;;;;;10.19;100.00;102056.13;4895528;29;20461;-77
2023/09/26 03:01:31;;;;;;;16.45;14.75;;;;;;;9.62;100.00;101969.06;4895380;29;20560;-77
2023/09/26 03:07:48;;;;;;;17.25;15.45;;;;;;;10.52;100.00;102112.47;4895247;29;20123;-78
2023/09/26 03:22:44;;;;;;;18.15;16.35;;;;;;;10.45;100.00;102103.31;4916197;29;20071;-78
2023/09/26 03:25:59;;;;;;;17.65;15.70;;;;;;;10.43;100.00;102103.38;4915904;29;20547;-79
2023/09/26 03:28:30;;;;;;;18.38;16.58;;;;;;;10.01;100.00;102049.16;4915623;29;20036;-80
2023/09/26 03:31:49;;;;;;;19.00;17.02;;;;;;;10.41;100.00;102112.06;4915615;29;20055;-78
2023/09/26 03:34:20;;;;;;;20.92;18.77;;;;;;;9.47;100.00;101957.66;4898508;29;20044;-78
2023/09/26 03:37:13;;;;;;;19.88;17.88;;;;;;;10.36;100.00;102109.69;4915634;29;20036;-78
2023/09/26 03:39:54;;;;;;;20.02;17.55;;;;;;;9.23;100.00;101922.53;4898764;28;20505;-78
2023/09/26 03:42:19;;;;;;;19.73;17.73;;;;;;;10.28;100.00;102106.59;4915803;28;20124;-77
2023/09/26 03:44:45;;;;;;;21.45;18.50;;;;;;;9.99;100.00;102056.13;4915382;29;20108;-77
2023/09/26 03:47:10;;;;;;;20.10;18.10;;;;;;;10.10;100.00;102081.50;4915610;29;20073;-77
2023/09/26 03:49:35;;;;;;;19.95;18.02;;;;;;;10.26;100.00;102108.41;4915319;29;20028;-78
2023/09/26 03:52:01;;;;;;;20.33;18.15;;;;;;;10.25;100.00;102107.56;4915352;28;20036;-77
2023/09/26 03:54:27;;;;;;;19.70;17.70;;;;;;;9.65;100.00;102008.50;4915251;28;20028;-78
2023/09/26 03:56:53;;;;;;;19.52;17.52;;;;;;;10.04;100.00;102064.53;4914508;29;20028;-77
2023/09/26 03:59:19;;;;;;;20.33;17.52;;;;;;;10.26;100.00;102098.91;4915043;29;20424;-78
2023/09/26 04:01:47;;;;;;;21.35;17.73;;;;;;;10.07;100.00;102072.97;4898281;29;20052;-77
2023/09/26 04:04:12;;;;;;;19.10;17.20;;;;;;;10.21;100.00;102107.69;4915244;29;20020;-79
2023/09/26 04:06:38;;;;;;;19.38;17.35;;;;;;;10.18;100.00;102107.84;4915065;29;20039;-77
2023/09/26 04:09:04;;;;;;;20.02;17.90;;;;;;;10.06;100.00;102093.69;4898105;29;20508;-78
2023/09/26 04:11:29;;;;;;;19.88;17.85;;;;;;;10.11;100.00;102106.41;4915335;28;20032;-78
2023/09/26 04:13:55;;;;;;;20.65;18.10;;;;;;;10.09;100.00;102106.47;4915004;29;20032;-79
2023/09/26 04:16:20;;;;;;;19.30;17.30;;;;;;;10.01;100.00;102087.84;4914891;29;20094;-77
2023/09/26 04:18:46;;;;;;;20.10;17.95;;;;;;;9.92;100.00;102076.16;4914810;28;20064;-77
2023/09/26 04:21:11;;;;;;;20.23;18.05;;;;;;;9.99;100.00;102095.66;4914995;28;20028;-77
2023/09/26 04:23:37;;;;;;;20.20;18.10;;;;;;;9.97;100.00;102089.75;4914805;29;20055;-76
2023/09/26 04:26:14;;;;;;;21.77;19.40;;;;;;;9.86;100.00;102063.53;4914763;28;20028;-77
2023/09/26 04:28:45;;;;;;;22.17;18.63;;;;;;;9.88;100.00;102072.03;4914629;29;20029;-80
2023/09/26 04:31:16;;;;;;;20.70;18.63;;;;;;;9.81;100.00;102062.84;4914778;29;20032;-78
2023/09/26 05:02:28;;;;;;;22.08;19.55;;;;;;;10.11;100.00;102055.59;4952597;29;20046;-79
2023/09/26 05:08:18;;;;;;;23.20;19.95;;;;;;;9.10;100.00;101888.69;4951454;29;20441;-77
2023/09/26 05:14:27;;;;;;;20.88;18.77;;;;;;;9.65;100.00;102003.31;4952385;29;20617;-82
2023/09/26 05:17:27;;;;;;;21.33;19.13;;;;;;;10.03;100.00;102070.59;4934893;28;20377;-77
2023/09/26 05:27:30;;;;;;;20.80;18.70;;;;;;;10.00;100.00;102062.97;4952470;28;20035;-79
2023/09/26 05:33:17;;;;;;;21.80;19.60;;;;;;;9.03;100.00;101898.38;4952272;29;20069;-79
2023/09/26 06:03:38;;;;;;;22.17;19.30;;;;;;;10.63;100.00;102074.97;4951851;29;20082;-80
2023/09/26 06:06:04;;;;;;;21.55;19.30;;;;;;;10.73;100.00;102071.97;4951361;29;20035;-79
2023/09/26 06:08:48;;;;;;;22.38;20.00;;;;;;;10.47;100.00;102022.28;4951351;29;20114;-81
2023/09/26 06:14:41;;;;;;;25.17;19.90;;;;;;;10.32;100.00;101960.97;4951646;29;20101;-78
2023/09/26 06:20:22;;;;;;;21.40;19.20;;;;;;;10.63;100.00;101984.53;4954077;29;19918;-81
2023/09/26 06:26:12;;;;;;;20.92;18.42;;;;;;;10.49;100.00;101906.00;4956823;29;20400;-77
2023/09/26 06:28:52;;;;;;;21.00;18.80;;;;;;;10.93;100.00;101953.06;4958359;29;20054;-79
2023/09/26 06:31:24;;;;;;;20.77;17.95;;;;;;;10.66;100.00;101892.31;4956237;28;20034;-77
2023/09/26 07:00:52;;;;;;;21.25;18.10;;;;;;;12.65;100.00;102083.50;1441114;26;20396;-79
2023/09/26 07:04:27;;;;;;;21.48;18.42;;;;;;;12.73;100.00;102083.94;4941528;29;20090;-79
2023/09/26 07:06:54;;;;;;;20.90;18.15;;;;;;;12.79;100.00;102082.78;4953909;28;20131;-77
2023/09/26 07:10:12;;;;;;;21.08;18.80;;;;;;;12.94;100.00;102084.56;4954358;28;20035;-78
2023/09/26 07:13:08;;;;;;;21.80;19.58;;;;;;;12.42;100.00;101975.88;4954122;28;20039;-79
2023/09/26 07:15:59;;;;;;;22.65;20.25;;;;;;;13.20;100.00;102084.06;4937042;28;20419;-76
2023/09/26 07:19:02;;;;;;;23.15;20.92;;;;;;;13.30;100.00;102084.41;4953820;28;20108;-77
2023/09/26 07:21:43;;;;;;;21.83;19.52;;;;;;;12.48;100.00;101938.44;4953791;29;20031;-78
2023/09/26 07:24:17;;;;;;;20.67;18.60;;;;;;;12.44;100.00;101913.63;4953966;28;20373;-79
2023/09/26 07:33:52;;;;;;;21.05;18.85;;;;;;;14.04;100.00;102087.13;4953805;28;20100;-79
2023/09/26 07:36:43;;;;;;;19.67;17.60;;;;;;;14.20;100.00;102087.09;4954114;28;20030;-78
2023/09/26 07:39:18;;;;;;;18.95;16.15;;;;;;;14.01;100.00;102037.13;4953509;29;20035;-80
2023/09/26 07:48:55;;;;;;;17.35;14.98;;;;;;;14.45;100.00;102081.31;4917020;29;20047;-76
2023/09/26 07:51:23;;;;;;;17.33;14.30;;;;;;;14.53;100.00;102081.69;4916328;29;20032;-76
2023/09/26 07:53:49;;;;;;;15.63;14.02;;;;;;;14.47;100.00;102063.06;4916230;29;20047;-76
2023/09/26 07:56:14;;;;;;;15.27;13.77;;;;;;;14.70;100.00;102083.28;4916162;29;20036;-76
2023/09/26 07:58:39;;;;;;;16.00;14.27;;;;;;;14.85;100.00;102073.75;4916090;29;20032;-77
2023/09/26 08:01:09;;;;;;;15.60;14.00;;;;;;;14.90;100.00;102061.28;4916185;29;20039;-76
2023/09/26 08:03:35;;;;;;;15.65;13.05;;;;;;;15.04;100.00;102066.44;4915517;29;20573;-76
2023/09/26 08:06:01;;;;;;;16.23;13.07;;;;;;;15.21;100.00;102074.06;4915857;29;20502;-75
2023/09/26 08:08:28;;;;;;;13.57;11.95;;;;;;;15.42;100.00;102077.06;4915795;29;20060;-76
2023/09/26 08:10:54;;;;;;;14.88;12.55;;;;;;;15.57;100.00;102083.06;4915786;29;20028;-76
2023/09/26 08:13:19;;;;;;;13.30;11.90;;;;;;;15.64;100.00;102083.56;4916059;29;20115;-75
2023/09/26 08:15:46;;;;;;;12.65;11.45;;;;;;;15.68;100.00;102075.44;4915825;29;20086;-75
2023/09/26 08:18:11;;;;;;;14.88;10.55;;;;;;;15.66;100.00;102053.03;4917062;29;20040;-76
2023/09/26 08:20:37;;;;;;;15.55;11.35;;;;;;;15.45;100.00;101992.75;4934350;29;20478;-76
2023/09/26 08:23:17;;;;;;;14.25;10.98;;;;;;;15.89;100.00;102061.94;4933743;29;20134;-75
2023/09/26 08:25:43;;;;;;;12.85;11.55;;;;;;;15.94;100.00;102052.06;4950018;28;20100;-77
2023/09/26 08:28:08;;;;;;;16.45;12.20;;;;;;;15.92;100.00;102039.13;4953841;28;20028;-74
2023/09/26 08:30:33;;;;;;;13.27;11.60;;;;;;;16.07;100.00;102055.53;4953408;28;20476;-74
2023/09/26 08:32:59;;;;;;;13.68;11.38;;;;;;;16.18;100.00;102063.47;4952817;28;20465;-72
2023/09/26 08:35:24;;;;;;;13.65;12.27;;;;;;;16.30;100.00;102069.63;4952706;28;20038;-73
2023/09/26 08:37:49;;;;;;;13.48;12.02;;;;;;;16.29;100.00;102053.16;4952328;28;20019;-73
2023/09/26 08:40:15;;;;;;;14.15;11.50;;;;;;;16.41;100.00;102058.47;4952275;29;20081;-72
2023/09/26 08:42:41;;;;;;;14.20;11.50;;;;;;;16.49;100.00;102064.81;4952255;28;20069;-73
2023/09/26 08:45:07;;;;;;;13.88;11.27;;;;;;;16.58;100.00;102069.41;4952496;28;20063;-72
2023/09/26 08:47:38;;;;;;;12.50;10.65;;;;;;;16.68;100.00;102064.44;4952385;29;20365;-72
2023/09/26 08:50:04;;;;;;;11.35;10.15;;;;;;;16.84;100.00;102067.66;4952521;29;20023;-71
2023/09/26 08:52:30;;;;;;;13.43;9.60;;;;;;;16.81;100.00;102053.97;4952268;28;20443;-72
2023/09/26 08:54:55;;;;;;;12.07;9.85;;;;;;;16.91;100.00;102070.66;4952180;28;20027;-71
2023/09/26 08:57:21;;;;;;;10.93;9.32;;;;;;;16.98;100.00;102065.84;4935515;28;20050;-72
2023/09/26 08:59:47;;;;;;;10.95;9.32;;;;;;;17.11;100.00;102062.28;4952220;28;20027;-71
2023/09/26 09:02:13;;;;;;;9.98;8.88;;;;;;;17.31;100.00;102062.63;4952190;28;20027;-72
2023/09/26 09:04:42;;;;;;;10.38;9.07;;;;;;;17.42;100.00;102047.88;4951958;28;20119;-73
2023/09/26 09:07:08;;;;;;;12.82;9.13;;;;;;;17.67;100.00;102059.13;4934809;28;20069;-72
2023/09/26 09:09:34;;;;;;;10.90;9.18;;;;;;;17.81;100.00;102053.75;4934757;28;20419;-72
2023/09/26 09:11:59;;;;;;;10.93;8.35;;;;;;;17.95;100.00;102048.31;4951889;29;20169;-72
2023/09/26 09:14:35;;;;;;;11.13;8.88;;;;;;;18.00;99.98;102032.31;4952243;28;20089;-73
2023/09/26 09:17:01;;;;;;;11.38;8.90;;;;;;;18.11;96.25;102048.03;4951966;28;20019;-72
2023/09/26 09:19:46;;;;;;;10.82;8.35;;;;;;;18.37;99.69;102058.25;4951783;28;20023;-72
2023/09/26 09:22:24;;;;;;;12.95;9.10;;;;;;;18.47;95.24;102043.53;4951594;29;20051;-72
2023/09/26 09:24:54;;;;;;;14.18;9.20;;;;;;;18.47;94.13;102035.69;4951770;29;20034;-72
2023/09/26 09:27:36;;;;;;;11.00;8.88;;;;;;;18.60;94.90;102042.47;4951935;28;20057;-72
2023/09/26 09:30:12;;;;;;;10.60;8.32;;;;;;;18.55;92.13;102025.47;4951779;28;20542;-72
2023/09/26 09:32:40;;;;;;;10.25;8.52;;;;;;;18.60;93.78;102042.47;4951506;28;20068;-71
2023/09/26 09:35:08;;;;;;;10.95;8.48;;;;;;;18.50;91.31;102014.53;4951574;28;20023;-73
2023/09/26 09:37:34;;;;;;;11.90;8.88;;;;;;;18.65;89.43;102038.69;4934586;28;20031;-72
2023/09/26 09:39:59;;;;;;;11.93;7.40;;;;;;;18.60;88.71;102031.19;4951836;28;20534;-71
2023/09/26 09:42:24;;;;;;;12.63;8.70;;;;;;;18.56;87.03;102020.09;4951710;28;20500;-71
2023/09/26 09:44:50;;;;;;;11.27;8.05;;;;;;;18.78;89.01;102032.41;4951804;28;20024;-71
2023/09/26 09:47:22;;;;;;;10.90;7.15;;;;;;;18.87;90.22;102012.50;4951423;29;20024;-71
2023/09/26 10:08:27;;;;;;;10.98;8.48;;;;;;;19.83;83.36;102006.47;5518467;22;20040;-72
2023/09/26 10:10:54;;;;;;;10.98;8.52;;;;;;;19.91;85.64;102004.03;4954976;29;20050;-71
2023/09/26 10:13:20;;;;;;;8.85;7.85;;;;;;;19.99;84.00;102007.69;4954662;29;20106;-71
2023/09/26 10:16:17;;;;;;;11.93;8.27;;;;;;;20.05;84.95;102017.66;4954447;29;20031;-73
2023/09/26 10:18:45;;;;;;;12.98;8.18;;;;;;;20.01;85.25;102020.66;4974725;28;20066;-71
2023/09/26 10:21:26;;;;;;;13.50;9.07;;;;;;;20.12;85.29;102023.22;4974835;28;20043;-72
2023/09/26 10:24:12;;;;;;;12.65;8.43;;;;;;;20.18;86.60;102020.09;4974932;28;20614;-72
2023/09/26 10:26:46;;;;;;;13.68;8.90;;;;;;;20.21;83.64;102022.44;4974996;28;20039;-76
2023/09/26 10:29:14;;;;;;;10.05;8.40;;;;;;;20.24;82.63;102023.97;4974649;28;20496;-73
2023/09/26 10:31:46;;;;;;;11.80;7.80;;;;;;;20.23;82.01;102017.88;4974729;28;20034;-73
2023/09/26 10:34:36;;;;;;;11.77;7.70;;;;;;;20.33;83.86;102016.13;4974620;28;20551;-74
2023/09/26 10:37:05;;;;;;;12.80;7.45;;;;;;;20.29;81.25;102008.69;4966353;28;20054;-74
2023/09/26 10:39:41;;;;;;;10.45;7.20;;;;;;;20.23;84.33;101980.34;4974789;28;20053;-73
2023/09/26 10:53:36;;;;;;;9.43;5.70;;;;;;;20.50;85.40;102003.41;5232333;22;20074;-77
2023/09/26 10:56:38;;;;;;;8.80;5.50;;;;;;;20.48;83.12;102000.09;5121411;22;20054;-73
2023/09/26 11:02:25;;;;;;;8.13;5.32;;;;;;;19.80;77.30;101880.91;4953998;29;20123;-74
2023/09/26 11:04:57;;;;;;;9.68;5.18;;;;;;;20.31;78.95;101941.16;4953627;28;20110;-74
2023/09/26 11:11:22;;;;;;;;;;;;;;;20.83;81.77;102007.50;4954434;29;20041;-74
2023/09/26 11:17:43;;;;;;;;;;;;;;;21.08;79.01;102016.69;4954182;29;20050;-75
2023/09/26 11:23:48;;;;;;;8.27;3.63;;;;;;;20.24;75.48;101869.19;4953362;29;20499;-75
2023/09/26 11:26:41;;;;;;;7.18;3.63;;;;;;;21.08;76.20;102009.63;4952944;29;20043;-74
2023/09/26 11:29:06;;;;;;;7.20;4.13;;;;;;;20.94;74.02;101973.25;4954347;28;20347;-71
2023/09/26 11:31:33;;;;;;;9.75;4.13;;;;;;;21.07;75.82;101994.84;4953497;29;20437;-72
2023/09/26 11:36:33;;;;;;;7.63;4.82;;;;;;;20.91;74.61;101995.34;5000795;23;20066;-70
2023/09/26 11:39:00;;;;;;;6.93;3.42;;;;;;;20.96;79.28;101992.34;4972841;28;20026;-72
2023/09/26 11:41:28;;;;;;;6.82;3.88;;;;;;;21.01;81.09;101989.28;4972575;28;20022;-73
2023/09/26 11:49:17;;;;;;;8.43;4.30;;;;;;;20.75;76.75;101903.19;3565236;22;21001;-73
2023/09/26 11:54:16;;;;;;;8.68;3.72;;;;;;;21.56;76.10;101982.56;5794017;22;20120;-72
2023/09/26 11:56:46;;;;;;;8.13;4.63;;;;;;;21.51;74.48;101978.69;4952852;29;20481;-72
2023/09/26 11:59:12;;;;;;;7.13;4.15;;;;;;;21.37;75.57;101949.25;4953154;29;20388;-73
2023/09/26 12:01:41;;;;;;;8.80;3.85;;;;;;;21.59;74.62;101969.13;4952935;29;20034;-71
2023/09/26 12:04:09;;;;;;;7.90;3.83;;;;;;;21.63;73.56;101970.53;4953211;28;20085;-74
2023/09/26 12:06:35;;;;;;;8.63;4.10;;;;;;;21.63;73.33;101943.38;4952926;29;20023;-73
2023/09/26 12:14:11;;;;;;;8.48;4.30;;;;;;;21.54;72.44;101939.00;1441600;26;20054;-73
2023/09/26 12:16:36;;;;;;;7.22;3.58;;;;;;;21.60;74.21;101955.03;4935096;29;20043;-72
2023/09/26 12:19:01;;;;;;;8.68;4.28;;;;;;;21.52;75.37;101935.66;4953093;29;20483;-72
2023/09/26 12:21:27;;;;;;;9.10;5.15;;;;;;;21.50;71.55;101954.22;4952825;29;20424;-73
2023/09/26 12:23:53;;;;;;;5.88;4.20;;;;;;;21.34;75.43;101925.91;4952421;29;20043;-71
2023/09/26 12:26:19;;;;;;;7.40;4.22;;;;;;;21.53;75.73;101940.78;4935563;29;20109;-72
2023/09/26 12:28:44;;;;;;;6.95;5.20;;;;;;;21.57;72.14;101938.72;4953022;29;20469;-72
2023/09/26 12:31:09;;;;;;;8.98;4.38;;;;;;;21.61;73.08;101935.66;4952417;29;20077;-72
2023/09/26 12:33:35;;;;;;;7.70;4.30;;;;;;;21.59;72.96;101937.59;4952755;29;20429;-74
2023/09/26 12:36:00;;;;;;;8.63;4.70;;;;;;;21.46;73.38;101923.94;4952103;29;20027;-71
2023/09/26 12:38:26;;;;;;;9.77;5.15;;;;;;;21.49;73.73;101931.53;4952610;29;20057;-71
2023/09/26 12:40:52;;;;;;;7.82;4.57;;;;;;;21.41;72.26;101926.13;4950964;28;20028;-72
2023/09/26 12:43:17;;;;;;;6.80;4.30;;;;;;;21.48;73.62;101941.22;4952409;29;20576;-72
2023/09/26 12:45:42;;;;;;;7.55;4.13;;;;;;;21.41;73.55;101931.41;4952149;29;20028;-71
2023/09/26 12:48:08;;;;;;;6.35;4.00;;;;;;;21.25;73.93;101936.38;4952751;29;20092;-72
2023/09/26 12:50:35;;;;;;;9.00;4.93;;;;;;;21.25;72.74;101952.97;4952303;28;20027;-71
2023/09/26 12:53:01;;;;;;;6.38;4.35;;;;;;;21.17;75.08;101931.81;4952313;29;20062;-72
2023/09/26 12:55:26;;;;;;;8.57;4.43;;;;;;;21.18;76.42;101942.16;4952461;29;20059;-72
2023/09/26 12:57:52;;;;;;;8.13;4.88;;;;;;;21.19;77.00;101945.63;4952257;29;20085;-72
2023/09/26 13:00:18;;;;;;;9.32;5.32;;;;;;;21.13;74.54;101935.66;4952378;29;20027;-72
2023/09/26 13:02:45;;;;;;;9.07;5.32;;;;;;;20.99;75.64;101909.81;5064451;22;20512;-72
2023/09/26 13:05:11;;;;;;;7.70;4.65;;;;;;;21.24;74.89;101930.28;4952075;28;20121;-72
2023/09/26 13:07:37;;;;;;;6.90;4.22;;;;;;;21.48;75.62;101930.69;4952134;29;20035;-71
2023/09/26 13:15:13;;;;;;;7.18;4.75;;;;;;;21.87;73.86;101932.41;5049741;23;20051;-72
2023/09/26 13:17:39;;;;;;;7.82;4.78;;;;;;;21.90;71.87;101913.72;4971177;28;20074;-70
2023/09/26 13:20:06;;;;;;;7.95;5.38;;;;;;;22.09;72.11;101928.63;4970954;28;20026;-70
2023/09/26 13:22:34;;;;;;;8.13;4.57;;;;;;;22.08;70.98;101924.34;4971139;28;20066;-70
2023/09/26 13:45:44;;;;;;;5.22;2.40;;;;;;;22.06;67.35;101908.66;5186956;22;20051;-71
2023/09/26 13:48:09;;;;;;;4.45;2.20;;;;;;;22.16;64.55;101930.53;4951341;28;20548;-72
2023/09/26 13:50:35;;;;;;;4.90;2.30;;;;;;;22.09;65.85;101923.34;4951642;28;20110;-72
2023/09/26 13:53:00;;;;;;;4.80;2.22;;;;;;;22.14;66.20;101918.50;4951462;29;20027;-70
2023/09/26 13:55:25;;;;;;;4.75;2.10;;;;;;;22.03;63.42;101903.72;4951622;29;20024;-71
2023/09/26 13:57:51;;;;;;;5.13;2.40;;;;;;;22.15;66.42;101917.53;4934484;29;20035;-72
2023/09/26 14:00:16;;;;;;;5.63;2.45;;;;;;;22.23;66.84;101913.19;4951385;29;20133;-71
2023/09/26 14:02:42;;;;;;;5.10;2.33;;;;;;;22.30;66.34;101916.06;4951294;29;20046;-71
2023/09/26 14:05:08;;;;;;;6.35;2.33;;;;;;;22.31;65.92;101909.81;4951632;29;20023;-71
2023/09/26 14:07:33;;;;;;;4.78;2.20;;;;;;;22.23;64.19;101913.19;4950948;28;20027;-71
2023/09/26 14:09:59;;;;;;;4.40;2.28;;;;;;;22.32;62.06;101927.28;4951387;29;20089;-71
2023/09/26 14:12:24;;;;;;;5.70;2.20;;;;;;;22.28;61.67;101921.47;4951462;29;20030;-71
2023/09/26 14:14:50;;;;;;;4.80;2.22;;;;;;;22.24;62.07;101904.31;4951203;29;20028;-70
2023/09/26 14:17:16;;;;;;;4.80;2.30;;;;;;;22.29;61.95;101907.31;4951114;29;20027;-71
2023/09/26 14:19:41;;;;;;;6.20;2.50;;;;;;;22.12;62.01;101870.44;4950987;28;20377;-73
2023/09/26 14:22:07;;;;;;;4.65;2.40;;;;;;;22.32;62.86;101908.84;4951114;28;20084;-72
2023/09/26 14:24:32;;;;;;;4.07;2.22;;;;;;;22.24;65.51;101901.69;4933900;28;20106;-72
2023/09/26 14:26:59;;;;;;;5.10;2.38;;;;;;;22.29;65.28;101911.75;4951316;29;20388;-73
2023/09/26 14:29:28;;;;;;;4.88;2.50;;;;;;;22.14;67.16;101890.41;4951404;29;20055;-72
2023/09/26 14:31:54;;;;;;;3.88;2.30;;;;;;;22.19;66.93;101903.09;4951162;29;20551;-71
2023/09/26 14:34:19;;;;;;;4.88;2.50;;;;;;;22.08;66.60;101884.88;4951150;29;20069;-71
2023/09/26 14:36:44;;;;;;;6.32;2.60;;;;;;;21.99;66.69;101884.75;4950971;28;20392;-72
2023/09/26 14:39:10;;;;;;;5.10;2.83;;;;;;;22.01;66.61;101893.31;4950842;28;20038;-71
2023/09/26 14:41:35;;;;;;;6.40;2.83;;;;;;;21.92;67.51;101902.06;4937037;29;20384;-70
2023/09/26 14:44:04;;;;;;;7.20;2.63;;;;;;;21.83;65.86;101894.22;4953726;29;20388;-71
2023/09/26 14:46:30;;;;;;;5.85;2.60;;;;;;;21.74;66.17;101893.28;4954295;29;20043;-72
2023/09/26 14:48:59;;;;;;;5.53;2.50;;;;;;;21.70;69.57;101892.72;4954259;29;20023;-71
2023/09/26 14:51:24;;;;;;;6.18;2.72;;;;;;;21.66;67.70;101890.56;4954224;28;20030;-71
2023/09/26 14:53:50;;;;;;;6.20;2.50;;;;;;;21.50;68.69;101870.09;4953936;29;20032;-70
2023/09/26 14:56:16;;;;;;;5.20;2.33;;;;;;;21.47;69.08;101875.66;4954088;29;20032;-71
2023/09/26 14:58:42;;;;;;;4.75;2.65;;;;;;;21.58;69.20;101895.69;4937062;29;20103;-70
2023/09/26 15:01:08;;;;;;;6.68;2.42;;;;;;;21.55;71.34;101898.59;4954176;29;20047;-71
2023/09/26 15:03:34;;;;;;;3.72;2.25;;;;;;;21.54;67.93;101896.94;4953872;29;20038;-72
2023/09/26 15:06:00;;;;;;;4.68;2.30;;;;;;;21.48;71.30;101883.41;4953817;29;20074;-70
2023/09/26 15:08:25;;;;;;;5.22;2.75;;;;;;;21.51;67.39;101891.97;4954042;28;20059;-73
2023/09/26 15:10:51;;;;;;;7.07;2.78;;;;;;;21.46;69.20;101895.03;4953560;29;20036;-71
2023/09/26 15:13:16;;;;;;;5.45;2.72;;;;;;;21.43;70.09;101890.03;4953631;29;20029;-71
2023/09/26 15:15:41;;;;;;;5.15;2.40;;;;;;;21.48;69.63;101898.34;4953849;29;20034;-72
2023/09/26 15:18:07;;;;;;;6.10;2.17;;;;;;;21.41;71.39;101886.72;4953792;29;20066;-79
2023/09/26 15:20:36;;;;;;;6.40;2.72;;;;;;;21.45;70.86;101902.09;4953774;29;20023;-74
2023/09/26 15:23:01;;;;;;;6.03;2.42;;;;;;;21.35;72.50;101887.31;4953639;29;20050;-76
2023/09/26 15:25:26;;;;;;;5.28;2.40;;;;;;;21.37;71.54;101891.44;4953697;29;20544;-73
2023/09/26 15:27:52;;;;;;;4.40;2.50;;;;;;;21.32;72.59;101885.75;4953840;29;20037;-77
2023/09/26 15:30:18;;;;;;;6.75;2.90;;;;;;;21.31;71.22;101883.28;4953723;29;20546;-75
2023/09/26 15:32:43;;;;;;;4.65;2.25;;;;;;;21.26;74.03;101888.97;4953846;29;20027;-73
2023/09/26 15:35:09;;;;;;;6.28;2.40;;;;;;;21.19;74.54;101882.59;4953682;29;20066;-77
2023/09/26 15:37:34;;;;;;;5.60;2.55;;;;;;;21.08;73.52;101873.06;4953650;29;20054;-73
2023/09/26 15:40:02;;;;;;;5.97;2.72;;;;;;;21.13;73.62;101872.63;4953477;29;20100;-74
2023/09/26 15:42:27;;;;;;;6.60;2.65;;;;;;;20.96;73.86;101853.16;4953916;29;20061;-72
2023/09/26 15:44:53;;;;;;;10.23;3.35;;;;;;;21.00;74.53;101870.28;4953534;29;20097;-73
2023/09/26 15:47:18;;;;;;;5.78;2.80;;;;;;;20.76;75.81;101836.59;4953560;29;20113;-78